createdAt,value
2019-06-20T00:00:10.752Z,21.00
2019-06-20T00:02:44.439Z,21.00
2019-06-20T00:05:18.203Z,20.90
2019-06-20T00:07:51.841Z,20.70
2019-06-20T00:10:26.226Z,20.70
2019-06-20T00:13:00.897Z,20.80
2019-06-20T00:15:33.419Z,20.80
2019-06-20T00:18:07.840Z,20.90
2019-06-20T00:20:42.433Z,20.80
2019-06-20T00:23:16.011Z,20.70
2019-06-20T00:25:49.712Z,20.60
2019-06-20T00:28:24.078Z,20.60
2019-06-20T00:30:58.438Z,20.50
2019-06-20T00:33:32.252Z,20.50
2019-06-20T00:36:05.814Z,20.50
2019-06-20T00:38:39.406Z,20.60
2019-06-20T00:41:12.993Z,20.70
2019-06-20T00:43:46.785Z,20.80
2019-06-20T00:46:21.237Z,20.80
2019-06-20T00:48:55.125Z,20.70
2019-06-20T00:51:28.776Z,20.70
2019-06-20T00:54:02.373Z,20.60
2019-06-20T00:56:36.099Z,20.60
2019-06-20T00:59:09.800Z,20.60
2019-06-20T01:01:43.895Z,20.60
2019-06-20T01:04:17.495Z,20.70
2019-06-20T01:06:52.167Z,20.30
2019-06-20T01:09:25.704Z,20.30
2019-06-20T01:11:59.289Z,20.20
2019-06-20T01:14:33.546Z,20.10
2019-06-20T01:17:07.158Z,20.00
2019-06-20T01:19:40.712Z,19.90
2019-06-20T01:22:15.157Z,20.00
2019-06-20T01:24:48.661Z,20.00
2019-06-20T01:27:23.110Z,19.70
2019-06-20T01:29:56.892Z,19.70
2019-06-20T01:32:30.591Z,19.70
2019-06-20T01:35:07.788Z,19.70
2019-06-20T01:37:41.718Z,19.70
2019-06-20T01:40:16.184Z,19.60
2019-06-20T01:42:49.732Z,19.60
2019-06-20T01:45:23.320Z,19.60
2019-06-20T01:47:56.977Z,19.50
2019-06-20T01:50:30.678Z,19.60
2019-06-20T01:53:04.468Z,19.70
2019-06-20T01:55:38.925Z,19.50
2019-06-20T01:58:12.501Z,19.50
2019-06-20T02:00:46.117Z,19.30
2019-06-20T02:03:19.736Z,19.30
2019-06-20T02:05:54.766Z,19.30
2019-06-20T02:08:28.350Z,19.30
2019-06-20T02:11:02.061Z,19.30
2019-06-20T02:13:36.407Z,19.40
2019-06-20T02:16:11.091Z,19.30
2019-06-20T02:18:47.053Z,19.40
2019-06-20T02:21:22.389Z,19.30
2019-06-20T02:23:56.139Z,19.30
2019-06-20T02:26:29.862Z,19.40
2019-06-20T02:29:06.526Z,19.30
2019-06-20T02:31:40.827Z,19.40
2019-06-20T02:34:14.423Z,19.30
2019-06-20T02:36:48.411Z,19.50
2019-06-20T02:39:22.160Z,19.50
2019-06-20T02:41:56.575Z,19.50
2019-06-20T02:44:30.952Z,19.50
2019-06-20T02:47:04.020Z,19.50
2019-06-20T02:49:37.709Z,19.50
2019-06-20T02:52:11.291Z,19.50
2019-06-20T02:54:44.848Z,19.60
2019-06-20T02:57:20.135Z,19.40
2019-06-20T02:59:53.745Z,19.40
2019-06-20T03:02:28.134Z,19.30
2019-06-20T03:05:02.583Z,19.20
2019-06-20T03:07:36.166Z,19.20
2019-06-20T03:10:09.845Z,19.00
2019-06-20T03:12:43.384Z,19.00
2019-06-20T03:15:16.963Z,19.00
2019-06-20T03:17:50.571Z,19.00
2019-06-20T03:20:24.305Z,19.00
2019-06-20T03:22:57.956Z,19.00
2019-06-20T03:25:31.608Z,18.80
2019-06-20T03:28:05.264Z,18.80
2019-06-20T03:30:39.114Z,18.80
2019-06-20T03:33:12.703Z,18.70
2019-06-20T03:35:47.000Z,18.60
2019-06-20T03:38:20.710Z,18.60
2019-06-20T03:40:54.480Z,18.70
2019-06-20T03:43:28.155Z,18.70
2019-06-20T03:46:01.935Z,18.80
2019-06-20T03:48:35.413Z,18.80
2019-06-20T03:51:09.303Z,18.90
2019-06-20T03:53:42.951Z,18.90
2019-06-20T03:56:16.631Z,19.00
2019-06-20T03:58:50.333Z,19.10
2019-06-20T04:01:24.014Z,19.10
2019-06-20T04:03:58.364Z,19.30
2019-06-20T04:06:31.958Z,19.20
2019-06-20T04:09:05.588Z,19.20
2019-06-20T04:11:39.257Z,19.20
2019-06-20T04:14:12.916Z,19.20
2019-06-20T04:16:46.579Z,19.20
2019-06-20T04:19:21.198Z,19.10
2019-06-20T04:21:54.784Z,19.10
2019-06-20T04:24:28.417Z,18.90
2019-06-20T04:27:01.977Z,18.70
2019-06-20T04:29:36.063Z,18.50
2019-06-20T04:32:09.446Z,18.40
2019-06-20T04:34:43.075Z,18.30
2019-06-20T04:37:16.619Z,18.30
2019-06-20T04:39:50.119Z,18.30
2019-06-20T04:42:23.760Z,18.40
2019-06-20T04:44:57.415Z,18.50
2019-06-20T04:47:31.007Z,18.60
2019-06-20T04:50:04.694Z,18.70
2019-06-20T04:52:39.142Z,18.60
2019-06-20T04:55:12.675Z,18.60
2019-06-20T04:57:46.479Z,18.10
2019-06-20T05:00:20.278Z,18.00
2019-06-20T05:02:53.875Z,18.00
2019-06-20T05:05:27.443Z,18.00
2019-06-20T05:08:00.975Z,17.90
2019-06-20T05:10:38.873Z,17.90
2019-06-20T05:13:13.379Z,18.00
2019-06-20T05:15:52.767Z,18.00
2019-06-20T05:18:20.849Z,18.00
2019-06-20T05:20:54.461Z,18.00
2019-06-20T05:23:28.106Z,18.00
2019-06-20T05:26:02.643Z,18.00
2019-06-20T05:28:36.220Z,18.00
2019-06-20T05:31:10.637Z,18.20
2019-06-20T05:33:44.237Z,18.20
2019-06-20T05:36:17.820Z,18.30
2019-06-20T05:38:51.581Z,18.40
2019-06-20T05:41:25.376Z,18.60
2019-06-20T05:43:58.970Z,18.50
2019-06-20T05:46:32.570Z,18.70
2019-06-20T05:49:06.116Z,18.90
2019-06-20T05:51:39.991Z,19.10
2019-06-20T05:54:17.292Z,19.20
2019-06-20T05:56:51.302Z,19.10
2019-06-20T05:59:25.759Z,19.20
2019-06-20T06:01:58.816Z,19.20
2019-06-20T06:04:32.440Z,19.30
2019-06-20T06:07:07.009Z,19.50
2019-06-20T06:09:40.761Z,19.40
2019-06-20T06:12:15.064Z,19.40
2019-06-20T06:14:49.115Z,19.30
2019-06-20T06:17:22.420Z,19.60
2019-06-20T06:19:56.248Z,19.80
2019-06-20T06:22:29.939Z,19.60
2019-06-20T06:25:03.589Z,19.60
2019-06-20T06:27:37.273Z,19.90
2019-06-20T06:30:11.750Z,20.10
2019-06-20T06:32:45.300Z,20.10
2019-06-20T06:35:18.881Z,20.30
2019-06-20T06:37:52.540Z,20.50
2019-06-20T06:40:26.293Z,20.60
2019-06-20T06:43:00.022Z,20.60
2019-06-20T06:45:33.839Z,20.60
2019-06-20T06:48:08.409Z,20.70
2019-06-20T06:50:42.285Z,20.70
2019-06-20T06:53:15.847Z,21.00
2019-06-20T06:55:49.540Z,20.80
2019-06-20T06:58:23.403Z,20.80
2019-06-20T07:00:57.189Z,20.60
2019-06-20T07:03:31.677Z,20.80
2019-06-20T07:06:05.407Z,20.80
2019-06-20T07:08:39.083Z,20.90
2019-06-20T07:11:12.912Z,20.70
2019-06-20T07:13:46.560Z,20.70
2019-06-20T07:16:20.205Z,20.90
2019-06-20T07:18:53.958Z,20.90
2019-06-20T07:21:27.589Z,20.90
2019-06-20T07:24:01.335Z,20.90
2019-06-20T07:26:35.819Z,21.20
2019-06-20T07:29:09.593Z,21.10
2019-06-20T07:31:43.288Z,21.30
2019-06-20T07:34:16.936Z,21.50
2019-06-20T07:36:51.450Z,21.70
2019-06-20T07:39:25.064Z,21.70
2019-06-20T07:41:59.532Z,21.40
2019-06-20T07:44:33.364Z,21.40
2019-06-20T07:47:16.969Z,21.60
2019-06-20T07:49:40.748Z,21.80
2019-06-20T07:52:14.371Z,22.00
2019-06-20T07:54:47.968Z,22.40
2019-06-20T07:57:21.880Z,22.50
2019-06-20T07:59:55.614Z,22.60
2019-06-20T08:02:29.167Z,22.80
2019-06-20T08:05:02.812Z,22.80
2019-06-20T08:07:36.455Z,23.50
2019-06-20T08:10:12.943Z,24.60
2019-06-20T08:12:46.563Z,25.90
2019-06-20T08:15:20.410Z,27.10
2019-06-20T08:17:53.886Z,28.20
2019-06-20T08:20:28.365Z,26.80
2019-06-20T08:23:02.089Z,26.80
2019-06-20T08:25:36.545Z,25.30
2019-06-20T08:28:10.250Z,25.20
2019-06-20T08:30:43.951Z,24.60
2019-06-20T08:33:17.766Z,24.40
2019-06-20T08:35:51.538Z,24.00
2019-06-20T08:38:25.164Z,23.70
2019-06-20T08:41:00.129Z,23.80
2019-06-20T08:43:32.700Z,24.70
2019-06-20T08:46:10.212Z,24.90
2019-06-20T08:48:40.271Z,25.50
2019-06-20T08:51:14.855Z,24.40
2019-06-20T08:53:49.162Z,24.00
2019-06-20T08:56:22.976Z,24.00
2019-06-20T08:58:57.359Z,24.10
2019-06-20T09:01:30.315Z,24.80
2019-06-20T09:04:03.921Z,25.10
2019-06-20T09:06:37.502Z,24.70
2019-06-20T09:09:11.011Z,24.50
2019-06-20T09:11:44.551Z,24.20
2019-06-20T09:14:18.248Z,23.90
2019-06-20T09:16:52.330Z,23.80
2019-06-20T09:19:25.356Z,23.90
2019-06-20T09:22:00.476Z,23.60
2019-06-20T09:24:32.743Z,23.50
2019-06-20T09:27:06.606Z,23.50
2019-06-20T09:29:42.016Z,23.70
2019-06-20T09:32:14.112Z,23.80
2019-06-20T09:34:47.661Z,24.10
2019-06-20T09:37:22.245Z,24.30
2019-06-20T09:39:57.222Z,24.30
2019-06-20T09:42:30.289Z,23.60
2019-06-20T09:45:06.507Z,23.50
2019-06-20T09:47:41.016Z,23.10
2019-06-20T09:50:14.561Z,23.10
2019-06-20T09:52:49.757Z,23.00
2019-06-20T09:55:21.984Z,23.10
2019-06-20T09:57:55.980Z,23.50
2019-06-20T10:00:29.516Z,23.90
2019-06-20T10:03:03.411Z,24.90
2019-06-20T10:05:36.750Z,25.80
2019-06-20T10:08:10.518Z,25.50
2019-06-20T10:10:45.440Z,26.20
2019-06-20T10:13:18.090Z,26.30
2019-06-20T10:15:51.738Z,26.60
2019-06-20T10:18:25.328Z,25.70
2019-06-20T10:20:58.989Z,25.40
2019-06-20T10:23:32.611Z,25.30
2019-06-20T10:26:06.272Z,25.30
2019-06-20T10:28:40.056Z,24.90
2019-06-20T10:31:13.607Z,24.80
2019-06-20T10:33:48.370Z,25.00
2019-06-20T10:36:20.882Z,26.10
2019-06-20T10:38:54.490Z,26.90
2019-06-20T10:41:28.332Z,27.00
2019-06-20T10:44:02.207Z,26.80
2019-06-20T10:46:35.893Z,26.80
2019-06-20T10:49:09.427Z,26.60
2019-06-20T10:51:44.708Z,25.60
2019-06-20T10:54:18.309Z,24.80
2019-06-20T10:56:51.899Z,24.80
2019-06-20T10:59:25.683Z,25.10
2019-06-20T11:01:59.412Z,26.00
2019-06-20T11:04:33.181Z,27.00
2019-06-20T11:07:06.933Z,28.00
2019-06-20T11:09:41.249Z,28.50
2019-06-20T11:12:14.377Z,28.40
2019-06-20T11:14:48.466Z,27.90
2019-06-20T11:17:21.956Z,27.50
2019-06-20T11:19:55.530Z,27.00
2019-06-20T11:22:29.320Z,26.40
2019-06-20T11:25:02.863Z,26.00
2019-06-20T11:27:37.671Z,25.70
2019-06-20T11:30:13.282Z,25.60
2019-06-20T11:32:48.778Z,25.40
2019-06-20T11:35:20.639Z,25.20
2019-06-20T11:37:54.268Z,24.80
2019-06-20T11:40:27.924Z,24.50
2019-06-20T11:43:02.507Z,24.30
2019-06-20T11:45:37.392Z,24.30
2019-06-20T11:48:09.896Z,24.30
2019-06-20T11:50:43.616Z,24.70
2019-06-20T11:53:17.377Z,25.00
2019-06-20T11:55:50.902Z,25.00
2019-06-20T11:58:24.654Z,24.90
2019-06-20T12:01:03.454Z,24.90
2019-06-20T12:03:32.005Z,24.90
2019-06-20T12:06:05.598Z,25.00
2019-06-20T12:08:40.459Z,25.10
2019-06-20T12:11:13.423Z,25.20
2019-06-20T12:13:48.501Z,25.30
2019-06-20T12:16:21.534Z,25.20
2019-06-20T12:18:55.210Z,25.20
2019-06-20T12:21:29.023Z,25.20
2019-06-20T12:24:02.802Z,25.40
2019-06-20T12:26:38.932Z,25.30
2019-06-20T12:29:11.058Z,25.10
2019-06-20T12:31:45.839Z,25.00
2019-06-20T12:34:18.237Z,25.20
2019-06-20T12:36:52.004Z,25.40
2019-06-20T12:39:26.421Z,25.40
2019-06-20T12:41:59.958Z,25.40
2019-06-20T12:44:33.800Z,25.30
2019-06-20T12:47:07.504Z,25.40
2019-06-20T12:49:41.801Z,25.50
2019-06-20T12:52:15.431Z,24.70
2019-06-20T12:54:49.228Z,24.60
2019-06-20T12:57:22.843Z,24.60
2019-06-20T12:59:57.251Z,24.60
2019-06-20T13:02:30.841Z,24.60
2019-06-20T13:05:05.366Z,24.50
2019-06-20T13:07:40.541Z,24.50
2019-06-20T13:10:12.771Z,24.60
2019-06-20T13:12:46.514Z,24.70
2019-06-20T13:15:20.048Z,24.90
2019-06-20T13:17:53.805Z,24.60
2019-06-20T13:20:27.445Z,24.80
2019-06-20T13:23:01.849Z,25.00
2019-06-20T13:25:35.556Z,25.00
2019-06-20T13:28:09.160Z,25.10
2019-06-20T13:30:46.872Z,25.00
2019-06-20T13:33:16.585Z,24.70
2019-06-20T13:35:50.871Z,24.40
2019-06-20T13:38:24.058Z,24.40
2019-06-20T13:40:57.638Z,24.40
2019-06-20T13:43:31.379Z,24.40
2019-06-20T13:46:05.111Z,24.30
2019-06-20T13:48:44.065Z,24.40
2019-06-20T13:51:17.652Z,23.90
2019-06-20T13:53:51.400Z,23.90
2019-06-20T13:56:24.991Z,24.00
2019-06-20T13:58:59.309Z,24.30
2019-06-20T14:01:33.111Z,24.30
2019-06-20T14:04:06.724Z,24.40
2019-06-20T14:06:42.043Z,24.40
2019-06-20T14:09:13.931Z,24.50
2019-06-20T14:11:48.440Z,24.80
2019-06-20T14:14:23.054Z,24.90
2019-06-20T14:16:56.612Z,24.90
2019-06-20T14:19:30.233Z,24.90
2019-06-20T14:22:03.944Z,25.00
2019-06-20T14:24:38.272Z,25.00
2019-06-20T14:27:12.666Z,25.20
2019-06-20T14:29:46.545Z,25.20
2019-06-20T14:32:22.436Z,25.50
2019-06-20T14:34:54.330Z,25.60
2019-06-20T14:37:27.435Z,25.60
2019-06-20T14:40:01.298Z,25.80
2019-06-20T14:42:34.811Z,25.80
2019-06-20T14:45:08.456Z,25.80
2019-06-20T14:47:42.066Z,25.70
2019-06-20T14:50:15.798Z,25.50
2019-06-20T14:52:49.959Z,25.20
2019-06-20T14:55:24.096Z,25.00
2019-06-20T14:57:58.704Z,24.80
2019-06-20T15:00:33.318Z,24.80
2019-06-20T15:03:06.928Z,24.70
2019-06-20T15:05:41.296Z,25.10
2019-06-20T15:08:15.042Z,25.10
2019-06-20T15:10:50.128Z,25.00
2019-06-20T15:13:22.255Z,25.10
2019-06-20T15:15:55.921Z,25.10
2019-06-20T15:18:29.692Z,25.20
2019-06-20T15:21:03.276Z,25.10
2019-06-20T15:23:37.879Z,24.50
2019-06-20T15:26:11.454Z,24.50
2019-06-20T15:28:46.201Z,24.40
2019-06-20T15:31:19.023Z,24.30
2019-06-20T15:33:53.353Z,24.20
2019-06-20T15:36:26.554Z,24.10
2019-06-20T15:39:00.184Z,24.00
2019-06-20T15:41:34.255Z,24.10
2019-06-20T15:44:07.943Z,23.90
2019-06-20T15:46:41.801Z,23.90
2019-06-20T15:49:16.460Z,24.00
2019-06-20T15:51:49.069Z,24.10
2019-06-20T15:54:24.580Z,24.10
2019-06-20T15:56:56.439Z,24.10
2019-06-20T15:59:30.158Z,24.10
2019-06-20T16:02:03.852Z,24.00
2019-06-20T16:04:37.462Z,24.10
2019-06-20T16:07:11.296Z,24.10
2019-06-20T16:09:45.023Z,24.10
2019-06-20T16:12:18.816Z,24.10
2019-06-20T16:14:52.593Z,24.10
2019-06-20T16:17:26.248Z,24.10
2019-06-20T16:19:59.783Z,24.00
2019-06-20T16:22:33.351Z,24.00
2019-06-20T16:25:06.894Z,24.00
2019-06-20T16:27:40.685Z,24.00
2019-06-20T16:30:15.108Z,23.80
2019-06-20T16:32:48.748Z,23.90
2019-06-20T16:35:22.557Z,23.70
2019-06-20T16:37:56.316Z,23.60
2019-06-20T16:40:35.576Z,23.60
2019-06-20T16:43:10.037Z,23.60
2019-06-20T16:45:43.688Z,23.60
2019-06-20T16:48:18.104Z,23.80
2019-06-20T16:50:51.778Z,23.80
2019-06-20T16:53:25.373Z,23.80
2019-06-20T16:55:58.980Z,24.00
2019-06-20T16:58:32.561Z,24.20
2019-06-20T17:01:06.298Z,24.30
2019-06-20T17:03:42.053Z,24.40
2019-06-20T17:06:13.473Z,24.40
2019-06-20T17:08:47.222Z,24.30
2019-06-20T17:11:20.808Z,24.20
2019-06-20T17:13:54.388Z,24.20
2019-06-20T17:16:28.720Z,24.00
2019-06-20T17:19:02.399Z,24.00
2019-06-20T17:21:36.106Z,24.00
2019-06-20T17:24:09.749Z,23.90
2019-06-20T17:26:44.123Z,23.90
2019-06-20T17:29:18.575Z,23.90
2019-06-20T17:31:52.120Z,23.90
2019-06-20T17:34:25.926Z,23.90
2019-06-20T17:37:00.240Z,23.80
2019-06-20T17:39:34.846Z,23.80
2019-06-20T17:42:08.420Z,23.70
2019-06-20T17:44:41.936Z,23.80
2019-06-20T17:47:15.535Z,23.80
2019-06-20T17:49:49.946Z,23.80
2019-06-20T17:52:23.695Z,23.80
2019-06-20T17:54:57.283Z,23.80
2019-06-20T17:57:32.999Z,23.80
2019-06-20T18:00:09.850Z,23.80
2019-06-20T18:02:43.699Z,23.80
2019-06-20T18:05:17.306Z,23.80
2019-06-20T18:07:51.640Z,23.70
2019-06-20T18:10:25.332Z,23.70
2019-06-20T18:12:59.067Z,23.60
2019-06-20T18:15:33.917Z,23.60
2019-06-20T18:18:07.319Z,23.70
2019-06-20T18:20:40.916Z,23.70
2019-06-20T18:23:14.460Z,23.80
2019-06-20T18:25:48.757Z,24.00
2019-06-20T18:28:23.192Z,24.10
2019-06-20T18:30:57.007Z,24.10
2019-06-20T18:33:32.817Z,24.20
2019-06-20T18:36:07.266Z,24.20
2019-06-20T18:38:43.304Z,24.30
2019-06-20T18:41:17.824Z,24.30
2019-06-20T18:43:51.564Z,24.30
2019-06-20T18:46:25.218Z,24.20
2019-06-20T18:48:59.807Z,24.00
2019-06-20T18:51:34.404Z,23.90
2019-06-20T18:54:08.122Z,23.90
2019-06-20T18:56:41.693Z,23.80
2019-06-20T18:59:16.148Z,23.50
2019-06-20T19:01:50.014Z,23.50
2019-06-20T19:04:23.686Z,23.50
2019-06-20T19:06:57.304Z,23.40
2019-06-20T19:09:31.767Z,23.20
2019-06-20T19:12:06.184Z,23.20
2019-06-20T19:14:39.768Z,23.20
2019-06-20T19:17:14.824Z,23.10
2019-06-20T19:19:47.051Z,23.10
2019-06-20T19:22:20.674Z,23.00
2019-06-20T19:24:54.321Z,23.00
2019-06-20T19:27:42.152Z,23.00
2019-06-20T19:30:01.546Z,22.90
2019-06-20T19:32:35.273Z,22.90
2019-06-20T19:35:10.645Z,22.90
2019-06-20T19:37:44.047Z,22.80
2019-06-20T19:40:17.644Z,22.80
2019-06-20T19:42:51.218Z,22.80
2019-06-20T19:45:24.865Z,22.80
2019-06-20T19:47:58.631Z,22.80
2019-06-20T19:50:32.327Z,22.80
2019-06-20T19:53:06.869Z,22.70
2019-06-20T19:55:41.272Z,22.70
2019-06-20T19:58:14.907Z,22.70
2019-06-20T20:00:48.503Z,22.80
2019-06-20T20:03:22.815Z,22.70
2019-06-20T20:05:58.348Z,22.70
2019-06-20T20:08:30.348Z,22.70
2019-06-20T20:11:04.165Z,22.70
2019-06-20T20:13:37.821Z,22.60
2019-06-20T20:16:11.415Z,22.60
2019-06-20T20:18:45.025Z,22.60
2019-06-20T20:21:18.787Z,22.60
2019-06-20T20:23:53.365Z,22.60
2019-06-20T20:26:26.951Z,22.60
2019-06-20T20:29:00.617Z,22.60
2019-06-20T20:31:34.428Z,22.60
2019-06-20T20:34:11.738Z,22.50
2019-06-20T20:36:41.684Z,22.40
2019-06-20T20:39:17.777Z,22.20
2019-06-20T20:41:54.352Z,22.10
2019-06-20T20:44:29.163Z,22.00
2019-06-20T20:47:02.902Z,22.00
2019-06-20T20:49:36.422Z,22.00
2019-06-20T20:52:10.265Z,22.00
2019-06-20T20:54:43.853Z,21.90
2019-06-20T20:57:17.478Z,22.00
2019-06-20T20:59:51.923Z,22.00
2019-06-20T21:02:25.656Z,21.90
2019-06-20T21:04:59.239Z,22.00
2019-06-20T21:07:32.820Z,22.00
2019-06-20T21:10:06.530Z,22.00
2019-06-20T21:12:40.064Z,22.00
2019-06-20T21:15:13.822Z,22.00
2019-06-20T21:17:47.368Z,22.00
2019-06-20T21:20:21.128Z,22.10
2019-06-20T21:22:55.527Z,22.00
2019-06-20T21:25:32.202Z,22.00
2019-06-20T21:28:02.964Z,22.00
2019-06-20T21:30:36.646Z,22.00
2019-06-20T21:33:11.061Z,21.80
2019-06-20T21:35:44.788Z,21.80
2019-06-20T21:38:18.636Z,21.70
2019-06-20T21:40:52.368Z,21.70
2019-06-20T21:43:25.921Z,21.80
2019-06-20T21:46:00.498Z,21.80
2019-06-20T21:48:34.296Z,21.80
2019-06-20T21:51:07.979Z,21.80
2019-06-20T21:53:42.138Z,21.80
2019-06-20T21:56:15.889Z,21.80
2019-06-20T21:58:49.644Z,21.70
2019-06-20T22:01:23.666Z,21.70
2019-06-20T22:03:57.459Z,21.70
2019-06-20T22:06:31.941Z,21.70
2019-06-20T22:09:06.301Z,21.70
2019-06-20T22:11:39.987Z,21.60
2019-06-20T22:14:13.596Z,21.60
2019-06-20T22:16:47.413Z,21.60
2019-06-20T22:19:21.000Z,21.50
2019-06-20T22:21:54.785Z,21.50
2019-06-20T22:24:28.339Z,21.50
2019-06-20T22:27:01.875Z,21.50
2019-06-20T22:29:35.645Z,21.40
2019-06-20T22:32:09.404Z,21.30
2019-06-20T22:34:43.108Z,21.20
2019-06-20T22:37:17.630Z,21.10
2019-06-20T22:39:51.466Z,21.10
2019-06-20T22:42:25.158Z,21.10
2019-06-20T22:44:58.897Z,21.00
2019-06-20T22:47:32.494Z,21.00
2019-06-20T22:50:07.213Z,20.90
2019-06-20T22:52:41.128Z,20.90
2019-06-20T22:55:14.884Z,20.90
2019-06-20T22:57:49.299Z,20.90
2019-06-20T23:00:22.886Z,20.90
2019-06-20T23:02:56.613Z,20.80
2019-06-20T23:05:30.359Z,20.80
2019-06-20T23:08:03.923Z,20.90
2019-06-20T23:10:37.645Z,21.00
2019-06-20T23:13:11.269Z,21.00
2019-06-20T23:15:44.864Z,21.10
2019-06-20T23:18:18.472Z,21.10
2019-06-20T23:21:04.256Z,21.10
2019-06-20T23:23:26.643Z,21.10
2019-06-20T23:26:00.676Z,21.10
2019-06-20T23:28:38.308Z,21.10
2019-06-20T23:31:12.002Z,21.10
2019-06-20T23:33:46.894Z,21.10
2019-06-20T23:36:20.444Z,21.10
2019-06-20T23:39:09.232Z,21.10
2019-06-20T23:41:42.890Z,21.00
2019-06-20T23:44:16.572Z,20.90
2019-06-20T23:46:50.279Z,20.90
2019-06-20T23:49:24.796Z,20.70
2019-06-20T23:51:59.154Z,20.60
2019-06-20T23:54:32.889Z,20.50
2019-06-20T23:57:06.405Z,20.50
2019-06-20T23:59:40.631Z,20.50
